sensor_id;sensor_type;location;lat;lon;timestamp;P1;durP1;ratioP1;P2;durP2;ratioP2
20758;SDS011;10539;53.686;9.158;2023-02-02T00:01:24;17.33;;;1.97;;
20758;SDS011;10539;53.686;9.158;2023-02-02T00:03:50;15.63;;;2.13;;
20758;SDS011;10539;53.686;9.158;2023-02-02T00:06:16;9.03;;;1.33;;
20758;SDS011;10539;53.686;9.158;2023-02-02T00:08:43;20.83;;;2.80;;
20758;SDS011;10539;53.686;9.158;2023-02-02T00:11:09;13.80;;;1.63;;
20758;SDS011;10539;53.686;9.158;2023-02-02T00:13:38;13.60;;;1.97;;
20758;SDS011;10539;53.686;9.158;2023-02-02T00:19:01;18.97;;;2.53;;
20758;SDS011;10539;53.686;9.158;2023-02-02T00:21:32;17.57;;;2.73;;
20758;SDS011;10539;53.686;9.158;2023-02-02T00:23:58;19.37;;;2.53;;
20758;SDS011;10539;53.686;9.158;2023-02-02T00:26:24;21.87;;;2.70;;
20758;SDS011;10539;53.686;9.158;2023-02-02T00:28:50;25.57;;;2.80;;
20758;SDS011;10539;53.686;9.158;2023-02-02T00:31:16;19.60;;;2.23;;
20758;SDS011;10539;53.686;9.158;2023-02-02T00:33:46;10.83;;;1.83;;
20758;SDS011;10539;53.686;9.158;2023-02-02T00:36:13;14.90;;;2.57;;
20758;SDS011;10539;53.686;9.158;2023-02-02T00:38:39;9.53;;;1.57;;
20758;SDS011;10539;53.686;9.158;2023-02-02T00:41:04;16.97;;;2.00;;
20758;SDS011;10539;53.686;9.158;2023-02-02T00:43:31;15.67;;;1.90;;
20758;SDS011;10539;53.686;9.158;2023-02-02T00:45:57;19.90;;;2.77;;
20758;SDS011;10539;53.686;9.158;2023-02-02T00:48:23;26.33;;;2.87;;
20758;SDS011;10539;53.686;9.158;2023-02-02T00:50:50;16.70;;;3.07;;
20758;SDS011;10539;53.686;9.158;2023-02-02T00:53:16;22.37;;;2.83;;
20758;SDS011;10539;53.686;9.158;2023-02-02T00:55:43;18.17;;;2.60;;
20758;SDS011;10539;53.686;9.158;2023-02-02T00:58:09;26.33;;;3.20;;
20758;SDS011;10539;53.686;9.158;2023-02-02T01:00:35;17.53;;;2.30;;
20758;SDS011;10539;53.686;9.158;2023-02-02T01:03:02;28.73;;;4.17;;
20758;SDS011;10539;53.686;9.158;2023-02-02T01:05:34;24.97;;;3.47;;
20758;SDS011;10539;53.686;9.158;2023-02-02T01:08:01;28.60;;;3.43;;
20758;SDS011;10539;53.686;9.158;2023-02-02T01:10:27;21.80;;;3.00;;
20758;SDS011;10539;53.686;9.158;2023-02-02T01:12:53;26.20;;;2.93;;
20758;SDS011;10539;53.686;9.158;2023-02-02T01:15:19;19.17;;;2.87;;
20758;SDS011;10539;53.686;9.158;2023-02-02T01:17:44;19.30;;;2.60;;
20758;SDS011;10539;53.686;9.158;2023-02-02T01:20:14;18.00;;;2.03;;
20758;SDS011;10539;53.686;9.158;2023-02-02T01:22:42;20.87;;;2.30;;
20758;SDS011;10539;53.686;9.158;2023-02-02T01:25:08;19.47;;;2.50;;
20758;SDS011;10539;53.686;9.158;2023-02-02T01:27:34;20.73;;;2.60;;
20758;SDS011;10539;53.686;9.158;2023-02-02T01:30:00;16.57;;;2.13;;
20758;SDS011;10539;53.686;9.158;2023-02-02T01:32:26;22.93;;;2.53;;
20758;SDS011;10539;53.686;9.158;2023-02-02T01:34:54;22.07;;;2.80;;
20758;SDS011;10539;53.686;9.158;2023-02-02T01:37:20;19.40;;;2.20;;
20758;SDS011;10539;53.686;9.158;2023-02-02T01:39:46;21.40;;;3.30;;
20758;SDS011;10539;53.686;9.158;2023-02-02T01:42:14;21.33;;;3.13;;
20758;SDS011;10539;53.686;9.158;2023-02-02T01:47:40;22.60;;;3.03;;
20758;SDS011;10539;53.686;9.158;2023-02-02T01:50:10;25.33;;;3.20;;
20758;SDS011;10539;53.686;9.158;2023-02-02T01:52:37;15.53;;;2.77;;
20758;SDS011;10539;53.686;9.158;2023-02-02T01:55:09;23.87;;;3.70;;
20758;SDS011;10539;53.686;9.158;2023-02-02T01:57:44;20.83;;;3.03;;
20758;SDS011;10539;53.686;9.158;2023-02-02T02:00:18;19.03;;;2.20;;
20758;SDS011;10539;53.686;9.158;2023-02-02T02:02:50;22.37;;;2.57;;
20758;SDS011;10539;53.686;9.158;2023-02-02T02:05:22;23.77;;;2.70;;
20758;SDS011;10539;53.686;9.158;2023-02-02T02:07:51;20.63;;;3.60;;
20758;SDS011;10539;53.686;9.158;2023-02-02T02:10:21;18.17;;;2.27;;
20758;SDS011;10539;53.686;9.158;2023-02-02T02:12:47;20.07;;;3.20;;
20758;SDS011;10539;53.686;9.158;2023-02-02T02:15:13;22.73;;;2.70;;
20758;SDS011;10539;53.686;9.158;2023-02-02T02:23:55;22.47;;;3.37;;
20758;SDS011;10539;53.686;9.158;2023-02-02T02:35:30;24.23;;;2.83;;
20758;SDS011;10539;53.686;9.158;2023-02-02T02:38:15;31.60;;;3.20;;
20758;SDS011;10539;53.686;9.158;2023-02-02T02:40:46;22.60;;;3.07;;
20758;SDS011;10539;53.686;9.158;2023-02-02T02:43:20;28.43;;;3.63;;
20758;SDS011;10539;53.686;9.158;2023-02-02T02:45:58;21.03;;;2.60;;
20758;SDS011;10539;53.686;9.158;2023-02-02T02:48:24;27.30;;;2.90;;
20758;SDS011;10539;53.686;9.158;2023-02-02T02:50:50;29.70;;;3.73;;
20758;SDS011;10539;53.686;9.158;2023-02-02T02:53:19;25.50;;;2.47;;
20758;SDS011;10539;53.686;9.158;2023-02-02T02:59:07;22.20;;;3.07;;
20758;SDS011;10539;53.686;9.158;2023-02-02T03:04:50;24.97;;;3.50;;
20758;SDS011;10539;53.686;9.158;2023-02-02T03:08:06;30.97;;;4.27;;
20758;SDS011;10539;53.686;9.158;2023-02-02T03:10:25;30.63;;;4.10;;
20758;SDS011;10539;53.686;9.158;2023-02-02T03:12:53;32.50;;;3.77;;
20758;SDS011;10539;53.686;9.158;2023-02-02T03:15:20;31.57;;;3.37;;
20758;SDS011;10539;53.686;9.158;2023-02-02T03:17:46;36.90;;;3.83;;
20758;SDS011;10539;53.686;9.158;2023-02-02T03:20:14;32.23;;;3.83;;
20758;SDS011;10539;53.686;9.158;2023-02-02T03:22:40;33.83;;;3.93;;
20758;SDS011;10539;53.686;9.158;2023-02-02T03:25:06;22.77;;;3.20;;
20758;SDS011;10539;53.686;9.158;2023-02-02T03:27:35;30.97;;;3.43;;
20758;SDS011;10539;53.686;9.158;2023-02-02T03:30:03;26.57;;;3.40;;
20758;SDS011;10539;53.686;9.158;2023-02-02T03:32:29;25.00;;;3.27;;
20758;SDS011;10539;53.686;9.158;2023-02-02T03:34:55;33.23;;;4.67;;
20758;SDS011;10539;53.686;9.158;2023-02-02T03:37:21;28.83;;;3.20;;
20758;SDS011;10539;53.686;9.158;2023-02-02T03:39:46;25.33;;;3.17;;
20758;SDS011;10539;53.686;9.158;2023-02-02T03:42:12;26.47;;;3.53;;
20758;SDS011;10539;53.686;9.158;2023-02-02T03:44:38;17.30;;;2.47;;
20758;SDS011;10539;53.686;9.158;2023-02-02T03:47:04;23.67;;;3.10;;
20758;SDS011;10539;53.686;9.158;2023-02-02T03:49:29;31.57;;;3.50;;
20758;SDS011;10539;53.686;9.158;2023-02-02T03:51:56;28.60;;;3.17;;
20758;SDS011;10539;53.686;9.158;2023-02-02T03:54:22;28.43;;;4.60;;
20758;SDS011;10539;53.686;9.158;2023-02-02T03:56:47;23.63;;;3.20;;
20758;SDS011;10539;53.686;9.158;2023-02-02T03:59:13;32.37;;;3.10;;
20758;SDS011;10539;53.686;9.158;2023-02-02T04:01:39;31.10;;;4.23;;
20758;SDS011;10539;53.686;9.158;2023-02-02T04:04:04;19.83;;;2.77;;
20758;SDS011;10539;53.686;9.158;2023-02-02T04:06:30;39.27;;;4.27;;
20758;SDS011;10539;53.686;9.158;2023-02-02T04:08:56;27.03;;;3.00;;
20758;SDS011;10539;53.686;9.158;2023-02-02T04:11:22;30.13;;;3.13;;
20758;SDS011;10539;53.686;9.158;2023-02-02T04:13:47;24.63;;;3.70;;
20758;SDS011;10539;53.686;9.158;2023-02-02T04:16:13;34.77;;;3.90;;
20758;SDS011;10539;53.686;9.158;2023-02-02T04:18:39;35.67;;;4.50;;
20758;SDS011;10539;53.686;9.158;2023-02-02T04:21:05;27.70;;;3.03;;
20758;SDS011;10539;53.686;9.158;2023-02-02T04:23:32;29.30;;;4.00;;
20758;SDS011;10539;53.686;9.158;2023-02-02T04:25:58;25.50;;;3.47;;
20758;SDS011;10539;53.686;9.158;2023-02-02T04:28:25;36.00;;;3.60;;
20758;SDS011;10539;53.686;9.158;2023-02-02T04:30:51;35.67;;;4.33;;
20758;SDS011;10539;53.686;9.158;2023-02-02T04:33:19;34.70;;;4.10;;
20758;SDS011;10539;53.686;9.158;2023-02-02T04:35:45;34.37;;;4.43;;
20758;SDS011;10539;53.686;9.158;2023-02-02T04:38:11;24.00;;;3.63;;
20758;SDS011;10539;53.686;9.158;2023-02-02T04:40:40;34.03;;;3.40;;
20758;SDS011;10539;53.686;9.158;2023-02-02T04:43:08;27.90;;;2.93;;
20758;SDS011;10539;53.686;9.158;2023-02-02T04:45:34;35.40;;;4.47;;
20758;SDS011;10539;53.686;9.158;2023-02-02T04:48:00;35.90;;;3.63;;
20758;SDS011;10539;53.686;9.158;2023-02-02T04:50:26;19.37;;;3.10;;
20758;SDS011;10539;53.686;9.158;2023-02-02T04:52:52;34.20;;;3.37;;
20758;SDS011;10539;53.686;9.158;2023-02-02T04:55:18;31.63;;;3.30;;
20758;SDS011;10539;53.686;9.158;2023-02-02T04:57:44;34.00;;;4.07;;
20758;SDS011;10539;53.686;9.158;2023-02-02T05:00:10;36.50;;;3.90;;
20758;SDS011;10539;53.686;9.158;2023-02-02T05:02:39;35.77;;;4.97;;
20758;SDS011;10539;53.686;9.158;2023-02-02T05:05:06;33.50;;;3.83;;
20758;SDS011;10539;53.686;9.158;2023-02-02T05:07:35;27.23;;;2.73;;
20758;SDS011;10539;53.686;9.158;2023-02-02T05:10:02;27.60;;;3.40;;
20758;SDS011;10539;53.686;9.158;2023-02-02T05:12:29;29.63;;;3.33;;
20758;SDS011;10539;53.686;9.158;2023-02-02T05:14:55;18.37;;;2.67;;
20758;SDS011;10539;53.686;9.158;2023-02-02T05:17:20;25.73;;;3.07;;
20758;SDS011;10539;53.686;9.158;2023-02-02T05:19:46;20.90;;;2.93;;
20758;SDS011;10539;53.686;9.158;2023-02-02T05:22:12;34.53;;;3.67;;
20758;SDS011;10539;53.686;9.158;2023-02-02T05:24:38;19.80;;;2.47;;
20758;SDS011;10539;53.686;9.158;2023-02-02T05:27:03;31.30;;;3.30;;
20758;SDS011;10539;53.686;9.158;2023-02-02T05:29:29;30.20;;;2.97;;
20758;SDS011;10539;53.686;9.158;2023-02-02T05:31:55;20.63;;;2.93;;
20758;SDS011;10539;53.686;9.158;2023-02-02T05:34:21;23.40;;;2.60;;
20758;SDS011;10539;53.686;9.158;2023-02-02T05:36:48;30.63;;;2.67;;
20758;SDS011;10539;53.686;9.158;2023-02-02T05:39:14;25.87;;;2.73;;
20758;SDS011;10539;53.686;9.158;2023-02-02T05:41:39;28.57;;;3.97;;
20758;SDS011;10539;53.686;9.158;2023-02-02T05:44:05;36.60;;;3.33;;
20758;SDS011;10539;53.686;9.158;2023-02-02T05:46:36;25.50;;;2.73;;
20758;SDS011;10539;53.686;9.158;2023-02-02T05:49:01;29.27;;;3.10;;
20758;SDS011;10539;53.686;9.158;2023-02-02T05:51:33;29.23;;;3.90;;
20758;SDS011;10539;53.686;9.158;2023-02-02T05:54:05;33.40;;;3.37;;
20758;SDS011;10539;53.686;9.158;2023-02-02T05:56:31;24.40;;;3.43;;
20758;SDS011;10539;53.686;9.158;2023-02-02T05:58:57;23.20;;;4.70;;
20758;SDS011;10539;53.686;9.158;2023-02-02T06:01:24;32.27;;;3.60;;
20758;SDS011;10539;53.686;9.158;2023-02-02T06:03:50;35.03;;;3.60;;
20758;SDS011;10539;53.686;9.158;2023-02-02T06:06:16;22.27;;;2.70;;
20758;SDS011;10539;53.686;9.158;2023-02-02T06:08:41;27.37;;;3.50;;
20758;SDS011;10539;53.686;9.158;2023-02-02T06:11:11;20.13;;;2.87;;
20758;SDS011;10539;53.686;9.158;2023-02-02T06:13:38;24.47;;;3.60;;
20758;SDS011;10539;53.686;9.158;2023-02-02T06:16:04;28.93;;;2.93;;
20758;SDS011;10539;53.686;9.158;2023-02-02T06:18:31;20.10;;;3.17;;
20758;SDS011;10539;53.686;9.158;2023-02-02T06:20:58;19.30;;;3.03;;
20758;SDS011;10539;53.686;9.158;2023-02-02T06:23:25;27.07;;;3.03;;
20758;SDS011;10539;53.686;9.158;2023-02-02T06:25:51;28.30;;;3.47;;
20758;SDS011;10539;53.686;9.158;2023-02-02T06:28:17;26.27;;;3.63;;
20758;SDS011;10539;53.686;9.158;2023-02-02T06:30:43;21.07;;;2.80;;
20758;SDS011;10539;53.686;9.158;2023-02-02T06:33:09;31.10;;;2.93;;
20758;SDS011;10539;53.686;9.158;2023-02-02T06:35:34;23.53;;;2.73;;
20758;SDS011;10539;53.686;9.158;2023-02-02T06:38:00;16.87;;;2.10;;
20758;SDS011;10539;53.686;9.158;2023-02-02T06:40:26;24.30;;;2.97;;
20758;SDS011;10539;53.686;9.158;2023-02-02T06:42:56;22.10;;;2.40;;
20758;SDS011;10539;53.686;9.158;2023-02-02T06:45:22;22.40;;;2.83;;
20758;SDS011;10539;53.686;9.158;2023-02-02T06:47:49;23.83;;;2.67;;
20758;SDS011;10539;53.686;9.158;2023-02-02T06:50:14;12.83;;;1.83;;
20758;SDS011;10539;53.686;9.158;2023-02-02T06:52:47;17.80;;;2.23;;
20758;SDS011;10539;53.686;9.158;2023-02-02T06:55:16;23.20;;;2.33;;
20758;SDS011;10539;53.686;9.158;2023-02-02T06:57:43;23.50;;;2.10;;
20758;SDS011;10539;53.686;9.158;2023-02-02T07:00:10;14.83;;;2.10;;
20758;SDS011;10539;53.686;9.158;2023-02-02T07:02:36;16.70;;;1.93;;
20758;SDS011;10539;53.686;9.158;2023-02-02T07:05:02;27.80;;;2.97;;
20758;SDS011;10539;53.686;9.158;2023-02-02T07:07:32;19.10;;;2.60;;
20758;SDS011;10539;53.686;9.158;2023-02-02T07:09:58;16.50;;;1.80;;
20758;SDS011;10539;53.686;9.158;2023-02-02T07:12:25;24.03;;;3.10;;
20758;SDS011;10539;53.686;9.158;2023-02-02T07:14:51;21.70;;;2.20;;
20758;SDS011;10539;53.686;9.158;2023-02-02T07:17:18;14.80;;;2.40;;
20758;SDS011;10539;53.686;9.158;2023-02-02T07:19:43;21.80;;;3.00;;
20758;SDS011;10539;53.686;9.158;2023-02-02T07:22:09;20.77;;;1.83;;
20758;SDS011;10539;53.686;9.158;2023-02-02T07:24:35;22.47;;;2.40;;
20758;SDS011;10539;53.686;9.158;2023-02-02T07:27:04;24.67;;;2.53;;
20758;SDS011;10539;53.686;9.158;2023-02-02T07:29:30;13.60;;;2.20;;
20758;SDS011;10539;53.686;9.158;2023-02-02T07:31:56;22.77;;;2.67;;
20758;SDS011;10539;53.686;9.158;2023-02-02T07:34:22;15.67;;;2.30;;
20758;SDS011;10539;53.686;9.158;2023-02-02T07:36:48;18.83;;;2.17;;
20758;SDS011;10539;53.686;9.158;2023-02-02T07:39:14;24.33;;;2.40;;
20758;SDS011;10539;53.686;9.158;2023-02-02T07:41:40;18.03;;;2.33;;
20758;SDS011;10539;53.686;9.158;2023-02-02T07:44:09;20.13;;;2.47;;
20758;SDS011;10539;53.686;9.158;2023-02-02T07:46:40;19.50;;;2.13;;
20758;SDS011;10539;53.686;9.158;2023-02-02T07:49:15;13.33;;;1.93;;
20758;SDS011;10539;53.686;9.158;2023-02-02T07:51:42;20.20;;;2.43;;
20758;SDS011;10539;53.686;9.158;2023-02-02T07:54:09;32.87;;;2.60;;
20758;SDS011;10539;53.686;9.158;2023-02-02T07:56:36;21.17;;;2.80;;
20758;SDS011;10539;53.686;9.158;2023-02-02T07:59:02;20.23;;;2.40;;
20758;SDS011;10539;53.686;9.158;2023-02-02T08:01:28;25.27;;;2.50;;
20758;SDS011;10539;53.686;9.158;2023-02-02T08:03:55;28.87;;;2.80;;
20758;SDS011;10539;53.686;9.158;2023-02-02T08:06:24;30.83;;;2.90;;
20758;SDS011;10539;53.686;9.158;2023-02-02T08:08:56;21.50;;;2.43;;
20758;SDS011;10539;53.686;9.158;2023-02-02T08:11:23;22.57;;;3.03;;
20758;SDS011;10539;53.686;9.158;2023-02-02T08:13:53;27.53;;;3.17;;
20758;SDS011;10539;53.686;9.158;2023-02-02T08:16:20;17.60;;;2.83;;
20758;SDS011;10539;53.686;9.158;2023-02-02T08:18:47;22.90;;;2.53;;
20758;SDS011;10539;53.686;9.158;2023-02-02T08:21:13;25.57;;;2.53;;
20758;SDS011;10539;53.686;9.158;2023-02-02T08:23:40;21.93;;;2.90;;
20758;SDS011;10539;53.686;9.158;2023-02-02T08:28:43;26.93;;;2.90;;
20758;SDS011;10539;53.686;9.158;2023-02-02T08:31:13;24.60;;;2.57;;
20758;SDS011;10539;53.686;9.158;2023-02-02T08:33:40;27.47;;;2.70;;
20758;SDS011;10539;53.686;9.158;2023-02-02T08:36:16;28.03;;;3.50;;
20758;SDS011;10539;53.686;9.158;2023-02-02T08:38:43;13.27;;;2.13;;
20758;SDS011;10539;53.686;9.158;2023-02-02T08:41:10;22.77;;;2.63;;
20758;SDS011;10539;53.686;9.158;2023-02-02T08:43:38;29.83;;;2.73;;
20758;SDS011;10539;53.686;9.158;2023-02-02T08:46:05;21.47;;;2.70;;
20758;SDS011;10539;53.686;9.158;2023-02-02T08:48:33;21.27;;;3.00;;
20758;SDS011;10539;53.686;9.158;2023-02-02T08:50:59;19.83;;;2.30;;
20758;SDS011;10539;53.686;9.158;2023-02-02T08:53:25;30.83;;;3.40;;
20758;SDS011;10539;53.686;9.158;2023-02-02T08:55:58;23.30;;;2.47;;
20758;SDS011;10539;53.686;9.158;2023-02-02T08:58:25;24.90;;;2.67;;
20758;SDS011;10539;53.686;9.158;2023-02-02T09:00:52;28.27;;;3.13;;
20758;SDS011;10539;53.686;9.158;2023-02-02T09:03:18;27.77;;;3.53;;
20758;SDS011;10539;53.686;9.158;2023-02-02T09:05:43;16.13;;;2.83;;
20758;SDS011;10539;53.686;9.158;2023-02-02T09:08:09;27.57;;;2.73;;
20758;SDS011;10539;53.686;9.158;2023-02-02T09:10:35;24.10;;;2.73;;
20758;SDS011;10539;53.686;9.158;2023-02-02T09:13:02;21.47;;;2.10;;
20758;SDS011;10539;53.686;9.158;2023-02-02T09:15:29;20.13;;;2.67;;
20758;SDS011;10539;53.686;9.158;2023-02-02T09:17:55;31.80;;;2.80;;
20758;SDS011;10539;53.686;9.158;2023-02-02T09:20:21;17.27;;;2.30;;
20758;SDS011;10539;53.686;9.158;2023-02-02T09:22:47;16.70;;;2.60;;
20758;SDS011;10539;53.686;9.158;2023-02-02T09:25:13;16.33;;;2.20;;
20758;SDS011;10539;53.686;9.158;2023-02-02T09:27:39;22.43;;;2.63;;
20758;SDS011;10539;53.686;9.158;2023-02-02T09:30:08;17.77;;;2.20;;
20758;SDS011;10539;53.686;9.158;2023-02-02T09:32:34;20.30;;;2.13;;
20758;SDS011;10539;53.686;9.158;2023-02-02T09:35:00;15.43;;;2.03;;
20758;SDS011;10539;53.686;9.158;2023-02-02T09:37:26;13.37;;;1.53;;
20758;SDS011;10539;53.686;9.158;2023-02-02T09:39:52;11.53;;;1.53;;
20758;SDS011;10539;53.686;9.158;2023-02-02T09:47:34;8.13;;;1.40;;
20758;SDS011;10539;53.686;9.158;2023-02-02T09:52:45;9.33;;;1.10;;
20758;SDS011;10539;53.686;9.158;2023-02-02T09:55:34;11.47;;;1.30;;
20758;SDS011;10539;53.686;9.158;2023-02-02T10:06:40;15.40;;;1.53;;
20758;SDS011;10539;53.686;9.158;2023-02-02T10:11:57;10.80;;;1.47;;
20758;SDS011;10539;53.686;9.158;2023-02-02T10:14:41;13.30;;;1.13;;
20758;SDS011;10539;53.686;9.158;2023-02-02T10:19:45;8.33;;;1.27;;
20758;SDS011;10539;53.686;9.158;2023-02-02T10:22:16;11.73;;;1.17;;
20758;SDS011;10539;53.686;9.158;2023-02-02T10:24:46;10.13;;;1.30;;
20758;SDS011;10539;53.686;9.158;2023-02-02T10:27:15;10.90;;;1.20;;
20758;SDS011;10539;53.686;9.158;2023-02-02T10:32:23;5.57;;;1.00;;
20758;SDS011;10539;53.686;9.158;2023-02-02T10:37:59;8.10;;;1.10;;
20758;SDS011;10539;53.686;9.158;2023-02-02T10:49:14;7.30;;;0.90;;
20758;SDS011;10539;53.686;9.158;2023-02-02T10:51:49;6.23;;;0.97;;
20758;SDS011;10539;53.686;9.158;2023-02-02T10:55:05;11.70;;;1.17;;
20758;SDS011;10539;53.686;9.158;2023-02-02T11:02:47;17.77;;;1.87;;
20758;SDS011;10539;53.686;9.158;2023-02-02T11:08:11;8.07;;;0.97;;
20758;SDS011;10539;53.686;9.158;2023-02-02T11:10:43;10.80;;;1.17;;
20758;SDS011;10539;53.686;9.158;2023-02-02T11:13:29;8.43;;;1.13;;
20758;SDS011;10539;53.686;9.158;2023-02-02T11:18:39;7.83;;;1.20;;
20758;SDS011;10539;53.686;9.158;2023-02-02T11:29:22;12.90;;;1.47;;
20758;SDS011;10539;53.686;9.158;2023-02-02T11:31:57;7.33;;;1.20;;
20758;SDS011;10539;53.686;9.158;2023-02-02T11:34:41;7.53;;;1.00;;
20758;SDS011;10539;53.686;9.158;2023-02-02T11:37:11;7.47;;;1.10;;
20758;SDS011;10539;53.686;9.158;2023-02-02T11:39:41;10.03;;;1.47;;
20758;SDS011;10539;53.686;9.158;2023-02-02T11:42:17;5.23;;;0.80;;
20758;SDS011;10539;53.686;9.158;2023-02-02T11:44:56;6.57;;;1.10;;
20758;SDS011;10539;53.686;9.158;2023-02-02T11:49:54;8.80;;;1.73;;
20758;SDS011;10539;53.686;9.158;2023-02-02T11:52:22;8.70;;;1.17;;
20758;SDS011;10539;53.686;9.158;2023-02-02T11:54:50;9.50;;;1.20;;
20758;SDS011;10539;53.686;9.158;2023-02-02T11:57:20;15.83;;;1.30;;
20758;SDS011;10539;53.686;9.158;2023-02-02T11:59:50;5.77;;;1.20;;
20758;SDS011;10539;53.686;9.158;2023-02-02T12:02:36;8.47;;;1.23;;
20758;SDS011;10539;53.686;9.158;2023-02-02T12:07:35;8.40;;;1.27;;
20758;SDS011;10539;53.686;9.158;2023-02-02T12:12:50;11.97;;;1.40;;
20758;SDS011;10539;53.686;9.158;2023-02-02T12:27:16;10.43;;;1.13;;
20758;SDS011;10539;53.686;9.158;2023-02-02T12:32:44;9.37;;;0.93;;
20758;SDS011;10539;53.686;9.158;2023-02-02T12:35:25;7.27;;;1.27;;
20758;SDS011;10539;53.686;9.158;2023-02-02T12:38:23;8.00;;;0.80;;
20758;SDS011;10539;53.686;9.158;2023-02-02T12:41:09;7.80;;;1.20;;
20758;SDS011;10539;53.686;9.158;2023-02-02T12:44:10;7.67;;;1.33;;
20758;SDS011;10539;53.686;9.158;2023-02-02T12:55:45;3.40;;;0.50;;
20758;SDS011;10539;53.686;9.158;2023-02-02T13:03:27;9.80;;;1.10;;
20758;SDS011;10539;53.686;9.158;2023-02-02T13:11:47;5.60;;;1.17;;
20758;SDS011;10539;53.686;9.158;2023-02-02T13:14:25;6.73;;;1.20;;
20758;SDS011;10539;53.686;9.158;2023-02-02T13:17:03;6.33;;;1.00;;
20758;SDS011;10539;53.686;9.158;2023-02-02T13:22:17;6.37;;;0.90;;
20758;SDS011;10539;53.686;9.158;2023-02-02T13:24:49;6.30;;;0.97;;
20758;SDS011;10539;53.686;9.158;2023-02-02T13:27:19;4.57;;;1.13;;
20758;SDS011;10539;53.686;9.158;2023-02-02T13:29:48;5.50;;;1.20;;
20758;SDS011;10539;53.686;9.158;2023-02-02T13:34:57;3.67;;;0.80;;
20758;SDS011;10539;53.686;9.158;2023-02-02T13:37:33;10.00;;;1.10;;
20758;SDS011;10539;53.686;9.158;2023-02-02T13:40:14;9.83;;;1.40;;
20758;SDS011;10539;53.686;9.158;2023-02-02T13:48:04;8.57;;;1.10;;
20758;SDS011;10539;53.686;9.158;2023-02-02T13:50:51;13.00;;;1.40;;
20758;SDS011;10539;53.686;9.158;2023-02-02T13:56:24;6.80;;;1.20;;
20758;SDS011;10539;53.686;9.158;2023-02-02T14:01:28;6.73;;;0.80;;
20758;SDS011;10539;53.686;9.158;2023-02-02T14:03:55;11.53;;;1.10;;
20758;SDS011;10539;53.686;9.158;2023-02-02T14:06:23;5.30;;;1.03;;
20758;SDS011;10539;53.686;9.158;2023-02-02T14:08:58;9.93;;;1.17;;
20758;SDS011;10539;53.686;9.158;2023-02-02T14:14:15;9.40;;;1.07;;
20758;SDS011;10539;53.686;9.158;2023-02-02T14:29:35;12.23;;;1.40;;
20758;SDS011;10539;53.686;9.158;2023-02-02T14:38:01;6.27;;;1.03;;
20758;SDS011;10539;53.686;9.158;2023-02-02T14:43:47;9.70;;;1.43;;
20758;SDS011;10539;53.686;9.158;2023-02-02T14:51:22;10.73;;;1.70;;
20758;SDS011;10539;53.686;9.158;2023-02-02T14:53:55;11.77;;;1.30;;
20758;SDS011;10539;53.686;9.158;2023-02-02T14:56:39;7.40;;;1.03;;
20758;SDS011;10539;53.686;9.158;2023-02-02T15:02:14;9.47;;;1.70;;
20758;SDS011;10539;53.686;9.158;2023-02-02T15:11:00;9.27;;;1.40;;
20758;SDS011;10539;53.686;9.158;2023-02-02T15:13:52;5.67;;;0.93;;
20758;SDS011;10539;53.686;9.158;2023-02-02T15:16:26;10.43;;;2.17;;
20758;SDS011;10539;53.686;9.158;2023-02-02T15:19:02;11.27;;;1.37;;
20758;SDS011;10539;53.686;9.158;2023-02-02T15:21:38;7.03;;;1.30;;
20758;SDS011;10539;53.686;9.158;2023-02-02T15:24:12;8.03;;;1.60;;
20758;SDS011;10539;53.686;9.158;2023-02-02T15:26:42;10.20;;;1.40;;
20758;SDS011;10539;53.686;9.158;2023-02-02T15:29:28;8.43;;;1.27;;
20758;SDS011;10539;53.686;9.158;2023-02-02T15:32:01;14.63;;;1.27;;
20758;SDS011;10539;53.686;9.158;2023-02-02T15:34:41;10.43;;;1.20;;
20758;SDS011;10539;53.686;9.158;2023-02-02T15:37:13;7.80;;;1.17;;
20758;SDS011;10539;53.686;9.158;2023-02-02T15:39:44;11.23;;;1.70;;
20758;SDS011;10539;53.686;9.158;2023-02-02T15:42:15;8.73;;;1.30;;
20758;SDS011;10539;53.686;9.158;2023-02-02T15:47:54;11.57;;;2.20;;
20758;SDS011;10539;53.686;9.158;2023-02-02T15:50:20;8.80;;;1.37;;
20758;SDS011;10539;53.686;9.158;2023-02-02T15:52:50;11.37;;;1.63;;
20758;SDS011;10539;53.686;9.158;2023-02-02T15:55:18;8.13;;;1.20;;
20758;SDS011;10539;53.686;9.158;2023-02-02T15:57:47;10.97;;;1.30;;
20758;SDS011;10539;53.686;9.158;2023-02-02T16:05:44;9.57;;;1.13;;
20758;SDS011;10539;53.686;9.158;2023-02-02T16:08:30;9.20;;;1.07;;
20758;SDS011;10539;53.686;9.158;2023-02-02T16:11:17;9.67;;;1.10;;
20758;SDS011;10539;53.686;9.158;2023-02-02T16:16:30;8.60;;;1.30;;
20758;SDS011;10539;53.686;9.158;2023-02-02T16:19:02;9.33;;;1.27;;
20758;SDS011;10539;53.686;9.158;2023-02-02T16:21:57;14.00;;;1.40;;
20758;SDS011;10539;53.686;9.158;2023-02-02T16:24:24;7.23;;;1.00;;
20758;SDS011;10539;53.686;9.158;2023-02-02T16:26:54;7.83;;;1.00;;
20758;SDS011;10539;53.686;9.158;2023-02-02T16:29:23;6.87;;;1.07;;
20758;SDS011;10539;53.686;9.158;2023-02-02T16:31:52;10.63;;;3.30;;
20758;SDS011;10539;53.686;9.158;2023-02-02T16:37:20;11.93;;;1.47;;
20758;SDS011;10539;53.686;9.158;2023-02-02T16:39:53;11.83;;;1.43;;
20758;SDS011;10539;53.686;9.158;2023-02-02T16:42:24;7.30;;;1.60;;
20758;SDS011;10539;53.686;9.158;2023-02-02T16:44:52;10.00;;;1.43;;
20758;SDS011;10539;53.686;9.158;2023-02-02T16:49:53;8.27;;;1.50;;
20758;SDS011;10539;53.686;9.158;2023-02-02T16:52:33;11.93;;;2.17;;
20758;SDS011;10539;53.686;9.158;2023-02-02T16:55:14;9.03;;;1.50;;
20758;SDS011;10539;53.686;9.158;2023-02-02T16:57:41;11.07;;;1.60;;
20758;SDS011;10539;53.686;9.158;2023-02-02T17:00:19;8.67;;;1.43;;
20758;SDS011;10539;53.686;9.158;2023-02-02T17:02:47;10.47;;;1.50;;
20758;SDS011;10539;53.686;9.158;2023-02-02T17:10:35;10.50;;;1.93;;
20758;SDS011;10539;53.686;9.158;2023-02-02T17:13:34;8.93;;;1.33;;
20758;SDS011;10539;53.686;9.158;2023-02-02T17:15:55;15.57;;;1.60;;
20758;SDS011;10539;53.686;9.158;2023-02-02T17:18:21;8.87;;;1.17;;
20758;SDS011;10539;53.686;9.158;2023-02-02T17:20:47;13.87;;;1.67;;
20758;SDS011;10539;53.686;9.158;2023-02-02T17:23:20;10.70;;;1.40;;
20758;SDS011;10539;53.686;9.158;2023-02-02T17:25:46;12.03;;;1.60;;
20758;SDS011;10539;53.686;9.158;2023-02-02T17:28:13;8.93;;;1.80;;
20758;SDS011;10539;53.686;9.158;2023-02-02T17:30:43;10.27;;;1.97;;
20758;SDS011;10539;53.686;9.158;2023-02-02T17:33:11;17.23;;;2.60;;
20758;SDS011;10539;53.686;9.158;2023-02-02T17:35:41;12.80;;;2.40;;
20758;SDS011;10539;53.686;9.158;2023-02-02T17:38:08;11.90;;;1.73;;
20758;SDS011;10539;53.686;9.158;2023-02-02T17:40:34;15.90;;;2.60;;
20758;SDS011;10539;53.686;9.158;2023-02-02T17:43:00;13.37;;;2.17;;
20758;SDS011;10539;53.686;9.158;2023-02-02T17:45:34;11.10;;;2.43;;
20758;SDS011;10539;53.686;9.158;2023-02-02T17:48:01;11.77;;;2.53;;
20758;SDS011;10539;53.686;9.158;2023-02-02T17:50:28;23.07;;;3.10;;
20758;SDS011;10539;53.686;9.158;2023-02-02T17:52:55;17.90;;;3.10;;
20758;SDS011;10539;53.686;9.158;2023-02-02T17:55:22;29.20;;;3.20;;
20758;SDS011;10539;53.686;9.158;2023-02-02T17:57:54;17.27;;;2.90;;
20758;SDS011;10539;53.686;9.158;2023-02-02T18:00:20;21.67;;;3.10;;
20758;SDS011;10539;53.686;9.158;2023-02-02T18:02:49;16.47;;;2.33;;
20758;SDS011;10539;53.686;9.158;2023-02-02T18:05:17;18.30;;;2.57;;
20758;SDS011;10539;53.686;9.158;2023-02-02T18:07:43;19.73;;;2.87;;
20758;SDS011;10539;53.686;9.158;2023-02-02T18:10:10;17.97;;;2.90;;
20758;SDS011;10539;53.686;9.158;2023-02-02T18:12:37;12.90;;;2.57;;
20758;SDS011;10539;53.686;9.158;2023-02-02T18:15:04;17.97;;;2.67;;
20758;SDS011;10539;53.686;9.158;2023-02-02T18:17:33;17.17;;;2.73;;